Time;durP1;ratioP1;P1;durP2;ratioP2;P2;SDS_P1;SDS_P2;PMS_P1;PMS_P2;Temp;Humidity;BMP_temperature;BMP_pressure;BME280_temperature;BME280_humidity;BME280_pressure;Samples;Min_cycle;Max_cycle;Signal;HPM_P1;HPM_P2
2023/12/22 00:01:08;;;;;;;16.83;3.22;;;5.10;99.90;;;;;;4971916;29;20115;-85
2023/12/22 00:03:35;;;;;;;21.90;2.55;;;5.10;99.90;;;;;;4955738;29;20040;-85
2023/12/22 00:06:01;;;;;;;18.98;2.53;;;5.30;99.90;;;;;;4969094;29;20386;-85
2023/12/22 00:08:28;;;;;;;17.30;2.83;;;5.10;99.90;;;;;;4955361;29;20062;-85
2023/12/22 00:10:54;;;;;;;19.15;2.90;;;6.10;99.90;;;;;;4967712;29;20040;-85
2023/12/22 00:13:21;;;;;;;18.17;2.63;;;5.30;99.90;;;;;;4962575;29;20075;-85
2023/12/22 00:15:48;;;;;;;22.17;2.90;;;5.30;99.90;;;;;;4955732;29;20098;-85
2023/12/22 00:18:14;;;;;;;18.85;2.72;;;5.30;99.90;;;;;;4953137;29;20517;-85
2023/12/22 00:20:41;;;;;;;22.95;3.40;;;5.70;99.90;;;;;;4948822;29;20050;-85
2023/12/22 00:23:07;;;;;;;17.70;2.80;;;5.40;99.90;;;;;;4936809;29;20038;-85
2023/12/22 00:25:34;;;;;;;24.85;3.42;;;5.40;99.90;;;;;;4945861;29;20541;-85
2023/12/22 00:28:01;;;;;;;11.50;3.05;;;6.40;99.90;;;;;;4971551;28;20047;-84
2023/12/22 00:30:27;;;;;;;12.35;1.90;;;5.70;99.90;;;;;;4981417;29;20079;-84
2023/12/22 00:32:54;;;;;;;11.07;1.80;;;5.70;99.90;;;;;;4936350;29;20040;-85
2023/12/22 00:35:21;;;;;;;7.88;1.60;;;5.00;99.90;;;;;;4963047;29;20461;-85
2023/12/22 00:37:47;;;;;;;10.35;1.77;;;4.80;99.90;;;;;;4955309;29;20043;-85
2023/12/22 00:40:14;;;;;;;11.15;2.00;;;4.60;99.90;;;;;;4971027;29;20044;-85
2023/12/22 00:42:41;;;;;;;15.48;2.13;;;4.60;99.90;;;;;;4947067;29;20540;-85
2023/12/22 00:45:08;;;;;;;12.00;2.10;;;4.50;99.90;;;;;;4979621;29;20034;-85
2023/12/22 00:47:35;;;;;;;10.20;2.15;;;4.50;99.90;;;;;;4969833;29;20776;-85
2023/12/22 00:50:04;;;;;;;8.05;1.80;;;4.50;99.90;;;;;;4951272;29;20370;-85
2023/12/22 00:52:32;;;;;;;16.23;2.33;;;4.50;99.90;;;;;;4962056;29;20054;-85
2023/12/22 00:54:58;;;;;;;10.48;1.75;;;4.60;99.90;;;;;;4954926;29;20090;-85
2023/12/22 00:57:25;;;;;;;15.57;2.22;;;4.70;99.90;;;;;;4950859;29;20036;-85
2023/12/22 00:59:52;;;;;;;17.67;2.05;;;4.90;99.90;;;;;;4950029;29;20044;-85
2023/12/22 01:02:18;;;;;;;17.40;2.85;;;5.30;99.90;;;;;;4946975;29;20044;-85
2023/12/22 01:04:45;;;;;;;10.15;1.77;;;4.90;99.90;;;;;;4966474;29;20409;-85
2023/12/22 01:07:12;;;;;;;17.08;3.40;;;5.00;99.90;;;;;;4947265;29;20100;-85
2023/12/22 01:09:39;;;;;;;16.60;2.50;;;5.10;99.90;;;;;;4954324;29;20530;-84
2023/12/22 01:12:06;;;;;;;12.30;2.45;;;5.10;99.90;;;;;;4954517;29;20047;-85
2023/12/22 01:14:33;;;;;;;23.73;3.85;;;5.20;99.90;;;;;;4970385;29;20442;-85
2023/12/22 01:17:00;;;;;;;19.70;2.22;;;5.20;99.90;;;;;;4954535;29;20051;-85
2023/12/22 01:19:27;;;;;;;25.27;3.08;;;5.20;99.90;;;;;;4954569;29;20051;-85
2023/12/22 01:21:54;;;;;;;13.82;2.10;;;5.10;99.90;;;;;;4954171;29;20512;-84
2023/12/22 01:24:20;;;;;;;10.32;2.58;;;5.10;99.90;;;;;;4954648;29;20048;-85
2023/12/22 01:26:47;;;;;;;15.90;2.75;;;5.10;99.90;;;;;;4954243;29;20481;-85
2023/12/22 01:29:13;;;;;;;17.23;2.83;;;5.10;99.90;;;;;;4966286;29;20040;-85
2023/12/22 01:31:40;;;;;;;16.55;2.70;;;5.10;99.90;;;;;;4967103;29;20123;-85
2023/12/22 01:34:07;;;;;;;23.45;2.60;;;5.40;99.90;;;;;;4947679;29;20044;-85
2023/12/22 01:36:34;;;;;;;24.75;3.75;;;5.40;99.90;;;;;;4959441;29;20132;-85
2023/12/22 01:39:01;;;;;;;19.90;2.90;;;5.60;99.90;;;;;;4952222;29;20043;-85
2023/12/22 01:41:28;;;;;;;17.75;2.90;;;5.10;99.90;;;;;;4953968;29;20043;-85
2023/12/22 01:43:54;;;;;;;18.85;3.08;;;5.10;99.90;;;;;;4948589;29;20097;-84
2023/12/22 01:46:21;;;;;;;26.88;3.47;;;5.10;99.90;;;;;;4949246;29;20035;-84
2023/12/22 01:48:48;;;;;;;33.20;4.00;;;5.20;99.90;;;;;;4969873;29;20044;-85
2023/12/22 01:51:15;;;;;;;21.63;3.45;;;5.80;99.90;;;;;;4953805;29;20044;-85
2023/12/22 01:53:41;;;;;;;26.33;3.17;;;5.20;99.90;;;;;;4953194;29;20052;-85
2023/12/22 01:56:09;;;;;;;17.85;2.85;;;5.70;99.90;;;;;;4969633;29;20047;-85
2023/12/22 01:58:37;;;;;;;24.42;3.38;;;6.10;99.90;;;;;;4953845;29;20047;-85
2023/12/22 02:01:04;;;;;;;21.60;3.20;;;5.20;99.90;;;;;;4962388;29;20470;-84
2023/12/22 02:03:31;;;;;;;22.15;3.13;;;5.70;99.90;;;;;;4964603;29;20128;-85
2023/12/22 02:05:58;;;;;;;28.60;3.70;;;5.30;99.90;;;;;;4950818;29;20043;-85
2023/12/22 02:08:27;;;;;;;23.42;3.53;;;5.30;99.90;;;;;;4964167;29;20636;-85
2023/12/22 02:10:54;;;;;;;14.75;2.85;;;5.30;99.90;;;;;;4967462;29;20046;-85
2023/12/22 02:13:21;;;;;;;21.80;3.58;;;5.40;99.90;;;;;;4951010;29;20039;-85
2023/12/22 02:15:51;;;;;;;23.50;3.17;;;5.40;99.90;;;;;;4966213;29;20044;-85
2023/12/22 02:18:25;;;;;;;21.05;3.53;;;5.40;99.90;;;;;;4953475;29;20059;-84
2023/12/22 02:20:53;;;;;;;21.88;3.40;;;5.50;99.90;;;;;;4953303;29;20043;-85
2023/12/22 02:23:19;;;;;;;20.90;2.83;;;5.50;99.90;;;;;;4969068;29;20519;-85
2023/12/22 02:25:47;;;;;;;13.02;2.53;;;5.90;99.90;;;;;;4950925;29;20122;-84
2023/12/22 02:28:18;;;;;;;17.65;3.35;;;5.60;99.90;;;;;;4959284;29;20122;-85
2023/12/22 02:31:04;;;;;;;16.20;2.40;;;5.90;99.90;;;;;;4949974;29;20043;-84
2023/12/22 02:33:31;;;;;;;;;;;5.60;99.90;;;;;;4969409;29;20055;-85
2023/12/22 02:36:03;;;;;;;17.75;2.78;;;5.50;99.90;;;;;;4946821;29;19919;-85
2023/12/22 02:38:31;;;;;;;16.02;2.20;;;5.40;99.90;;;;;;4945179;29;20135;-85
2023/12/22 02:40:58;;;;;;;16.15;2.30;;;5.40;99.90;;;;;;4971537;29;20043;-85
2023/12/22 02:43:25;;;;;;;19.20;3.08;;;5.30;99.90;;;;;;4970361;29;20095;-85
2023/12/22 02:45:52;;;;;;;12.50;2.30;;;5.30;99.90;;;;;;4944687;29;20115;-85
2023/12/22 02:48:18;;;;;;;15.38;2.10;;;5.30;99.90;;;;;;4943353;29;20043;-84
2023/12/22 02:50:45;;;;;;;17.50;2.88;;;5.90;99.90;;;;;;4968707;29;20044;-84
2023/12/22 02:53:11;;;;;;;12.07;2.53;;;5.20;99.90;;;;;;4950058;29;20050;-85
2023/12/22 02:55:38;;;;;;;9.07;1.58;;;5.20;99.90;;;;;;4946276;29;20057;-84
2023/12/22 02:58:05;;;;;;;15.57;2.00;;;5.20;99.90;;;;;;4948387;29;20495;-84
2023/12/22 03:00:31;;;;;;;14.73;2.42;;;5.30;99.90;;;;;;4940366;29;20048;-84
2023/12/22 03:02:58;;;;;;;13.57;2.53;;;5.50;99.90;;;;;;4955530;29;20047;-85
2023/12/22 03:05:24;;;;;;;14.50;2.20;;;5.20;99.90;;;;;;4952430;29;20428;-85
2023/12/22 03:07:51;;;;;;;16.52;2.20;;;5.20;99.90;;;;;;4940452;29;20055;-84
2023/12/22 03:10:17;;;;;;;14.68;2.58;;;5.20;99.90;;;;;;4952401;29;20036;-85
2023/12/22 03:12:44;;;;;;;18.40;3.03;;;5.40;99.90;;;;;;4952600;29;20035;-85
2023/12/22 03:15:11;;;;;;;23.77;3.63;;;5.20;99.90;;;;;;4952722;29;20059;-85
2023/12/22 03:17:37;;;;;;;17.77;2.65;;;5.30;99.90;;;;;;4951382;29;20036;-84
2023/12/22 03:20:04;;;;;;;7.35;1.52;;;5.40;99.90;;;;;;4953994;29;20043;-85
2023/12/22 03:22:31;;;;;;;17.13;2.72;;;5.10;99.90;;;;;;4959483;29;20127;-84
2023/12/22 03:24:58;;;;;;;15.93;2.17;;;5.40;99.90;;;;;;4956565;29;20126;-85
2023/12/22 03:27:24;;;;;;;12.13;2.13;;;4.80;99.90;;;;;;4969933;29;20031;-84
2023/12/22 03:29:51;;;;;;;19.38;2.30;;;4.80;99.90;;;;;;4977715;29;20087;-84
2023/12/22 03:32:18;;;;;;;14.65;1.60;;;4.70;99.90;;;;;;4956327;29;20048;-84
2023/12/22 03:34:44;;;;;;;12.70;1.85;;;4.60;99.90;;;;;;4955963;29;20050;-84
2023/12/22 03:37:11;;;;;;;13.77;1.20;;;4.60;99.90;;;;;;4972297;29;20043;-85
2023/12/22 03:39:37;;;;;;;10.90;1.85;;;4.50;99.90;;;;;;4956126;29;20945;-84
2023/12/22 03:42:04;;;;;;;9.07;1.30;;;5.20;99.90;;;;;;4956093;29;20082;-85
2023/12/22 03:44:31;;;;;;;15.35;2.17;;;4.50;99.90;;;;;;4954891;29;20378;-84
2023/12/22 03:46:57;;;;;;;5.63;1.38;;;4.50;99.90;;;;;;4957421;29;20047;-84
2023/12/22 03:49:24;;;;;;;12.75;1.80;;;4.60;99.90;;;;;;4956216;29;20040;-84
2023/12/22 03:51:50;;;;;;;13.43;2.45;;;5.30;99.90;;;;;;4943284;29;20520;-84
2023/12/22 03:54:17;;;;;;;16.58;2.35;;;4.60;99.90;;;;;;4955864;29;20404;-84
2023/12/22 03:56:44;;;;;;;15.70;2.38;;;4.60;99.90;;;;;;4943268;29;20082;-84
2023/12/22 03:59:10;;;;;;;11.77;1.95;;;5.40;99.90;;;;;;4939997;29;20516;-85
2023/12/22 04:01:37;;;;;;;10.60;1.75;;;4.70;99.90;;;;;;4945044;29;20127;-85
2023/12/22 04:04:04;;;;;;;11.93;2.03;;;4.60;99.90;;;;;;4962619;29;20501;-84
2023/12/22 04:06:30;;;;;;;13.43;2.55;;;4.70;99.90;;;;;;4955130;29;20052;-84
2023/12/22 04:08:57;;;;;;;14.15;1.92;;;4.80;99.90;;;;;;4955488;29;20044;-84
2023/12/22 04:11:24;;;;;;;11.05;2.55;;;4.90;99.90;;;;;;4944263;29;20413;-85
2023/12/22 04:13:50;;;;;;;16.42;2.10;;;5.10;99.90;;;;;;4950680;29;20043;-84
2023/12/22 04:16:17;;;;;;;8.70;1.85;;;5.60;99.90;;;;;;4968213;29;20088;-84
2023/12/22 04:18:44;;;;;;;11.02;1.75;;;5.10;99.90;;;;;;4961159;29;20062;-85
2023/12/22 04:21:10;;;;;;;16.92;2.67;;;5.00;99.90;;;;;;4952613;29;20056;-85
2023/12/22 04:23:37;;;;;;;17.52;2.55;;;5.00;99.90;;;;;;4955248;29;20050;-84
2023/12/22 04:26:03;;;;;;;14.77;1.85;;;5.20;99.90;;;;;;4951335;29;20035;-84
2023/12/22 04:28:30;;;;;;;17.75;2.05;;;4.80;99.90;;;;;;4945839;29;20031;-84
2023/12/22 04:30:57;;;;;;;9.55;1.60;;;4.80;99.90;;;;;;4954685;29;20412;-85
2023/12/22 04:33:23;;;;;;;16.92;2.35;;;4.80;99.90;;;;;;4945221;29;20044;-84
2023/12/22 04:35:50;;;;;;;18.42;3.10;;;4.80;99.90;;;;;;4942726;29;20043;-84
2023/12/22 04:38:17;;;;;;;15.10;2.15;;;4.80;99.90;;;;;;4970862;29;20044;-84
2023/12/22 04:40:43;;;;;;;14.38;1.98;;;4.80;99.90;;;;;;4969834;29;20488;-84
2023/12/22 04:43:10;;;;;;;15.93;2.10;;;4.90;99.90;;;;;;4954994;29;20048;-84
2023/12/22 04:45:37;;;;;;;17.58;2.75;;;4.90;99.90;;;;;;4955187;29;20508;-84
2023/12/22 04:48:04;;;;;;;19.65;2.72;;;5.40;99.90;;;;;;4954784;29;20126;-84
2023/12/22 04:50:30;;;;;;;20.42;2.58;;;4.90;99.90;;;;;;4964070;29;20507;-84
2023/12/22 04:52:57;;;;;;;15.43;2.95;;;5.00;99.90;;;;;;4943390;29;20111;-85
2023/12/22 04:55:23;;;;;;;17.38;2.53;;;5.00;99.90;;;;;;4970633;29;20063;-84
2023/12/22 04:57:50;;;;;;;18.98;2.65;;;5.10;99.90;;;;;;4957780;29;20044;-84
2023/12/22 05:00:17;;;;;;;21.55;3.30;;;5.20;99.90;;;;;;4970401;29;20404;-84
2023/12/22 05:02:43;;;;;;;9.68;2.60;;;5.20;99.90;;;;;;4952966;29;20516;-85
2023/12/22 05:05:11;;;;;;;21.15;3.30;;;6.10;99.90;;;;;;4959692;29;20713;-84
2023/12/22 05:07:40;;;;;;;20.00;2.53;;;5.40;99.90;;;;;;4954780;29;20094;-84
2023/12/22 05:10:07;;;;;;;22.50;2.35;;;6.10;99.90;;;;;;4954497;29;20393;-85
2023/12/22 05:12:33;;;;;;;15.85;2.78;;;5.50;99.90;;;;;;4954430;29;20095;-84
2023/12/22 05:15:00;;;;;;;19.52;3.95;;;6.50;99.90;;;;;;4954309;29;20043;-84
2023/12/22 05:17:27;;;;;;;14.55;2.65;;;6.00;99.90;;;;;;4954307;29;20035;-84
2023/12/22 05:19:53;;;;;;;22.30;2.92;;;5.70;99.90;;;;;;4954200;29;20046;-84
2023/12/22 05:22:20;;;;;;;22.95;3.03;;;6.20;99.90;;;;;;4954190;29;20516;-84
2023/12/22 05:24:47;;;;;;;14.20;2.60;;;5.70;99.90;;;;;;4954653;29;20497;-85
2023/12/22 05:27:14;;;;;;;14.90;3.17;;;5.70;99.90;;;;;;4953968;29;20095;-85
2023/12/22 05:29:41;;;;;;;20.65;3.00;;;5.80;99.90;;;;;;4954309;29;20041;-85
2023/12/22 05:32:07;;;;;;;22.15;2.97;;;5.80;99.90;;;;;;4947114;29;20035;-85
2023/12/22 05:34:34;;;;;;;16.67;2.95;;;5.80;99.90;;;;;;4953802;29;20051;-84
2023/12/22 05:37:00;;;;;;;17.55;2.58;;;5.90;99.90;;;;;;4952214;29;20078;-84
2023/12/22 05:39:27;;;;;;;22.30;2.72;;;5.90;99.90;;;;;;4948473;29;20035;-84
2023/12/22 05:41:54;;;;;;;25.23;2.78;;;5.90;99.90;;;;;;4952313;29;20511;-85
2023/12/22 05:44:22;;;;;;;18.00;2.35;;;5.90;99.90;;;;;;4969008;29;20052;-85
2023/12/22 05:46:48;;;;;;;14.50;2.60;;;6.00;99.90;;;;;;4969561;29;20489;-85
2023/12/22 05:49:15;;;;;;;16.77;2.58;;;6.00;99.90;;;;;;4952007;29;20035;-85
2023/12/22 05:51:42;;;;;;;15.95;2.40;;;6.80;99.90;;;;;;4966603;29;20119;-85
2023/12/22 05:54:10;;;;;;;22.23;2.30;;;6.10;99.90;;;;;;4965916;29;20741;-85
2023/12/22 05:56:36;;;;;;;17.42;2.78;;;6.10;99.90;;;;;;4938843;29;20050;-85
2023/12/22 05:59:03;;;;;;;19.45;3.03;;;6.60;99.90;;;;;;4944130;29;20040;-85
2023/12/22 06:01:29;;;;;;;14.23;2.20;;;6.10;99.90;;;;;;4954826;29;20052;-85
2023/12/22 06:03:56;;;;;;;15.48;3.13;;;6.20;99.90;;;;;;4953435;29;20481;-85
2023/12/22 06:06:23;;;;;;;18.35;2.47;;;7.00;99.90;;;;;;4953522;29;20130;-85
2023/12/22 06:08:49;;;;;;;17.33;2.83;;;6.50;99.90;;;;;;4938081;29;20142;-83
2023/12/22 06:11:16;;;;;;;16.48;2.63;;;7.00;99.90;;;;;;4945940;29;20071;-86
2023/12/22 06:13:43;;;;;;;19.98;3.63;;;6.90;99.90;;;;;;4950679;29;20123;-84
2023/12/22 06:16:18;;;;;;;16.63;2.58;;;6.10;99.90;;;;;;4935400;29;20047;-85
2023/12/22 06:18:44;;;;;;;21.23;3.07;;;6.10;99.90;;;;;;4939410;29;20043;-85
2023/12/22 06:21:11;;;;;;;19.33;2.10;;;6.20;99.90;;;;;;4953252;29;20387;-85
2023/12/22 06:23:38;;;;;;;16.45;2.72;;;6.10;99.90;;;;;;4953238;29;20035;-85
2023/12/22 06:26:09;;;;;;;22.25;3.08;;;6.10;99.90;;;;;;4938607;29;20064;-85
2023/12/22 06:28:37;;;;;;;14.75;2.30;;;6.10;99.90;;;;;;4961084;29;20039;-85
2023/12/22 06:31:04;;;;;;;15.88;2.55;;;6.10;99.90;;;;;;4958188;29;20054;-85
2023/12/22 06:33:31;;;;;;;20.65;2.90;;;6.20;99.90;;;;;;4953034;29;20040;-85
2023/12/22 06:35:57;;;;;;;17.48;2.92;;;6.20;99.90;;;;;;4941010;29;20040;-85
2023/12/22 06:38:24;;;;;;;21.08;3.33;;;6.20;99.90;;;;;;4956587;29;20788;-85
2023/12/22 06:40:51;;;;;;;16.05;2.58;;;6.20;99.90;;;;;;4937309;29;20052;-86
2023/12/22 06:43:17;;;;;;;14.15;2.58;;;6.20;99.90;;;;;;4928542;29;20035;-84
2023/12/22 06:45:44;;;;;;;14.70;2.67;;;6.30;99.90;;;;;;4964083;29;20106;-85
2023/12/22 06:48:10;;;;;;;12.48;2.33;;;6.40;99.90;;;;;;4950261;29;20421;-85
2023/12/22 06:50:39;;;;;;;17.52;2.30;;;6.30;99.90;;;;;;4931848;29;20040;-85
2023/12/22 06:53:07;;;;;;;18.63;2.55;;;6.30;99.90;;;;;;4931575;29;20075;-85
2023/12/22 06:55:33;;;;;;;22.05;2.60;;;6.70;99.90;;;;;;4947112;29;20043;-85
2023/12/22 06:58:00;;;;;;;20.23;2.65;;;6.30;99.90;;;;;;4926071;29;20059;-85
2023/12/22 07:00:27;;;;;;;19.70;3.13;;;6.40;99.90;;;;;;4948564;29;20489;-85
2023/12/22 07:02:53;;;;;;;18.92;3.03;;;6.30;99.90;;;;;;4943888;29;20039;-85
2023/12/22 07:05:22;;;;;;;13.35;2.78;;;6.30;99.90;;;;;;4950408;29;20489;-85
2023/12/22 07:07:50;;;;;;;13.52;2.10;;;6.90;99.90;;;;;;4933372;29;20421;-85
2023/12/22 07:10:17;;;;;;;11.95;2.20;;;6.20;99.90;;;;;;4960491;29;20048;-85
2023/12/22 07:12:43;;;;;;;16.90;2.28;;;6.20;99.90;;;;;;4946612;29;20126;-85
2023/12/22 07:15:10;;;;;;;12.85;2.25;;;6.10;99.90;;;;;;4960470;29;20047;-85
2023/12/22 07:17:37;;;;;;;13.10;1.85;;;6.80;99.90;;;;;;4948327;29;20043;-85
2023/12/22 07:20:04;;;;;;;15.00;2.20;;;6.60;99.90;;;;;;4949864;29;20048;-85
2023/12/22 07:22:31;;;;;;;10.43;1.70;;;6.00;99.90;;;;;;4950716;29;20387;-85
2023/12/22 07:24:58;;;;;;;8.93;1.80;;;5.90;99.90;;;;;;4968211;29;20039;-86
2023/12/22 07:27:24;;;;;;;6.45;1.63;;;5.70;99.90;;;;;;4949296;29;20039;-85
2023/12/22 07:29:51;;;;;;;11.98;1.77;;;5.60;99.90;;;;;;4936596;29;20497;-85
2023/12/22 07:32:17;;;;;;;11.85;1.70;;;5.30;99.90;;;;;;4952253;29;20087;-85
2023/12/22 07:34:44;;;;;;;10.02;1.50;;;5.10;99.90;;;;;;4961023;29;20041;-86
2023/12/22 07:37:11;;;;;;;11.38;1.70;;;5.00;99.90;;;;;;4935345;29;20500;-85
2023/12/22 07:39:38;;;;;;;8.02;1.80;;;5.70;99.90;;;;;;4952370;29;20050;-86
2023/12/22 07:42:06;;;;;;;9.43;1.50;;;4.80;99.90;;;;;;4950196;29;20044;-86
2023/12/22 07:44:33;;;;;;;11.38;1.52;;;4.70;99.90;;;;;;4944906;29;20032;-85
2023/12/22 07:47:00;;;;;;;12.02;1.92;;;4.70;99.90;;;;;;4946856;29;20103;-86
2023/12/22 07:49:27;;;;;;;11.57;2.25;;;5.10;99.90;;;;;;4946956;29;20046;-86
2023/12/22 07:51:53;;;;;;;7.68;1.52;;;4.60;99.90;;;;;;4959840;29;20044;-85
2023/12/22 07:54:20;;;;;;;18.35;1.92;;;4.50;99.90;;;;;;4944155;29;20043;-86
2023/12/22 07:56:47;;;;;;;13.77;1.90;;;4.70;99.90;;;;;;4943078;29;20040;-85
2023/12/22 07:59:13;;;;;;;7.63;1.70;;;4.50;99.90;;;;;;4947177;29;20066;-85
2023/12/22 08:01:40;;;;;;;15.70;1.90;;;4.40;99.90;;;;;;4944333;29;20044;-85
2023/12/22 08:04:07;;;;;;;12.32;1.80;;;4.40;99.90;;;;;;4944113;29;20036;-86
2023/12/22 08:06:33;;;;;;;10.95;1.88;;;4.60;99.90;;;;;;4960976;29;20056;-86
2023/12/22 08:09:00;;;;;;;17.52;2.17;;;4.50;99.90;;;;;;4941430;29;20044;-86
2023/12/22 08:11:28;;;;;;;14.50;2.17;;;4.40;99.90;;;;;;4954286;29;20471;-85
2023/12/22 08:13:54;;;;;;;10.90;1.77;;;4.50;99.90;;;;;;4952131;29;20043;-86
2023/12/22 08:16:21;;;;;;;17.90;1.85;;;5.20;99.90;;;;;;4952256;29;20485;-86
2023/12/22 08:18:48;;;;;;;17.10;2.05;;;4.50;99.90;;;;;;4943527;29;20039;-85
2023/12/22 08:21:16;;;;;;;13.80;1.92;;;4.50;99.90;;;;;;4955642;29;20042;-86
2023/12/22 08:23:43;;;;;;;21.88;2.75;;;5.40;99.90;;;;;;4952704;29;20123;-86
2023/12/22 08:26:09;;;;;;;11.93;2.08;;;4.50;99.90;;;;;;4970584;29;20067;-86
2023/12/22 08:28:36;;;;;;;15.15;1.90;;;4.60;99.90;;;;;;4955507;29;20055;-83
2023/12/22 08:31:03;;;;;;;15.07;2.13;;;4.70;99.90;;;;;;4964811;29;20062;-84
2023/12/22 08:33:31;;;;;;;17.88;2.58;;;4.70;99.90;;;;;;4952098;29;20044;-84
2023/12/22 08:35:58;;;;;;;18.02;2.08;;;4.80;99.90;;;;;;4971399;29;20075;-83
2023/12/22 08:38:24;;;;;;;16.13;3.00;;;4.80;99.90;;;;;;4954120;29;20044;-83
2023/12/22 08:40:51;;;;;;;15.60;2.42;;;4.80;99.90;;;;;;4966844;29;20481;-83
2023/12/22 08:43:17;;;;;;;19.48;2.78;;;4.90;99.90;;;;;;4965804;29;20044;-83
2023/12/22 08:45:44;;;;;;;15.10;3.35;;;5.60;99.90;;;;;;4954624;29;20031;-83
2023/12/22 08:48:11;;;;;;;21.67;2.83;;;5.00;99.90;;;;;;4956531;29;20040;-83
2023/12/22 08:50:37;;;;;;;15.65;2.70;;;5.00;99.90;;;;;;4961133;29;20043;-83
2023/12/22 08:53:04;;;;;;;21.33;3.13;;;5.00;99.90;;;;;;4967653;29;20035;-83
2023/12/22 08:55:31;;;;;;;14.65;2.47;;;5.90;99.90;;;;;;4946575;29;20119;-82
2023/12/22 08:57:57;;;;;;;24.67;2.92;;;6.00;99.90;;;;;;4951450;29;20040;-85
2023/12/22 09:00:24;;;;;;;17.42;2.70;;;5.20;99.90;;;;;;4944879;29;20040;-84
2023/12/22 09:02:50;;;;;;;21.58;2.85;;;5.30;99.90;;;;;;4954367;29;20044;-83
2023/12/22 09:05:19;;;;;;;18.02;2.38;;;5.30;99.90;;;;;;4946147;29;20477;-84
2023/12/22 09:07:46;;;;;;;25.85;3.10;;;5.40;99.90;;;;;;4954376;29;20063;-83
2023/12/22 09:10:13;;;;;;;20.00;2.83;;;5.40;99.90;;;;;;4961501;29;20044;-86
2023/12/22 09:12:39;;;;;;;22.15;3.28;;;5.50;99.90;;;;;;4942148;29;20063;-85
2023/12/22 09:15:06;;;;;;;21.90;3.03;;;5.50;99.90;;;;;;4954357;29;20043;-86
2023/12/22 09:17:33;;;;;;;20.17;2.90;;;5.50;99.90;;;;;;4969703;29;20075;-85
2023/12/22 09:20:00;;;;;;;24.13;2.88;;;6.50;99.90;;;;;;4942171;29;20131;-85
2023/12/22 09:22:26;;;;;;;18.58;2.40;;;5.50;99.90;;;;;;4954221;29;20420;-86
2023/12/22 09:24:53;;;;;;;16.23;3.30;;;6.00;99.90;;;;;;4954694;29;20031;-86
2023/12/22 09:27:19;;;;;;;18.55;2.53;;;5.90;99.90;;;;;;4954301;29;20039;-85
2023/12/22 09:29:46;;;;;;;14.18;2.90;;;5.60;99.90;;;;;;4954063;29;20126;-86
2023/12/22 09:32:13;;;;;;;11.00;2.50;;;5.60;99.90;;;;;;4954443;29;20075;-85
2023/12/22 09:34:40;;;;;;;21.42;5.53;;;5.70;99.90;;;;;;4954588;29;20051;-86
2023/12/22 09:37:06;;;;;;;19.88;2.92;;;5.70;99.90;;;;;;4954365;29;20054;-85
2023/12/22 09:39:33;;;;;;;17.65;2.63;;;5.70;99.90;;;;;;4979237;29;20043;-86
2023/12/22 09:42:00;;;;;;;12.95;2.53;;;6.50;99.90;;;;;;4956811;29;20051;-85
2023/12/22 09:44:32;;;;;;;14.18;2.53;;;5.80;99.90;;;;;;4960101;29;20189;-86
2023/12/22 09:47:03;;;;;;;19.90;2.78;;;6.00;99.90;;;;;;4951889;29;20039;-86
2023/12/22 09:49:29;;;;;;;12.32;2.17;;;6.80;99.90;;;;;;4942676;29;20417;-85
2023/12/22 09:51:57;;;;;;;18.35;3.25;;;6.50;99.90;;;;;;4952899;29;20047;-85
2023/12/22 09:54:25;;;;;;;24.73;3.10;;;6.00;99.90;;;;;;4965067;29;20079;-81
2023/12/22 09:56:53;;;;;;;16.25;2.83;;;7.20;99.90;;;;;;4937977;29;20051;-81
2023/12/22 09:59:22;;;;;;;17.67;2.50;;;7.10;99.90;;;;;;4962808;29;20091;-81
2023/12/22 10:01:51;;;;;;;13.40;2.13;;;6.10;99.90;;;;;;4941970;29;20048;-81
2023/12/22 10:04:17;;;;;;;14.88;2.13;;;6.80;99.90;;;;;;4941031;29;20043;-81
2023/12/22 10:06:46;;;;;;;15.85;1.90;;;7.20;99.90;;;;;;4950704;29;20425;-81
2023/12/22 10:09:15;;;;;;;17.00;1.90;;;7.30;99.90;;;;;;4957317;29;20067;-81
2023/12/22 10:11:44;;;;;;;14.32;2.35;;;6.60;99.90;;;;;;4962720;29;20529;-81
2023/12/22 10:14:11;;;;;;;18.10;2.20;;;6.30;99.90;;;;;;4941145;29;20058;-81
2023/12/22 10:16:38;;;;;;;12.38;2.00;;;6.40;99.90;;;;;;4933223;29;20046;-81
2023/12/22 10:19:06;;;;;;;17.33;2.17;;;6.40;99.90;;;;;;4937888;29;20039;-81
2023/12/22 10:21:33;;;;;;;14.65;2.22;;;7.40;99.90;;;;;;4934155;29;20048;-81
2023/12/22 10:24:00;;;;;;;10.55;1.98;;;6.40;99.90;;;;;;4941524;29;20043;-81
2023/12/22 10:26:28;;;;;;;11.73;1.98;;;7.10;99.90;;;;;;4949859;29;20068;-81
2023/12/22 10:28:54;;;;;;;15.25;2.13;;;6.50;99.90;;;;;;4952125;29;20035;-81
2023/12/22 10:31:22;;;;;;;12.95;2.03;;;7.40;99.90;;;;;;4923024;29;20527;-82
2023/12/22 10:33:48;;;;;;;13.93;1.70;;;6.50;99.90;;;;;;4936123;29;20099;-82
2023/12/22 10:36:15;;;;;;;14.05;2.25;;;7.50;99.90;;;;;;4933481;29;20044;-81
2023/12/22 10:38:43;;;;;;;14.45;1.92;;;7.20;99.90;;;;;;4936778;29;20044;-81
2023/12/22 10:41:09;;;;;;;14.80;1.73;;;7.10;99.90;;;;;;4922195;29;20044;-81
2023/12/22 10:43:40;;;;;;;12.70;2.00;;;7.50;99.90;;;;;;4927450;29;20040;-82
2023/12/22 10:46:11;;;;;;;9.43;1.48;;;6.70;99.90;;;;;;4929742;29;20043;-82
2023/12/22 10:48:37;;;;;;;12.52;2.38;;;7.70;99.90;;;;;;4918331;29;20126;-81
2023/12/22 10:51:09;;;;;;;10.43;1.80;;;7.80;99.90;;;;;;4935728;29;20449;-81
2023/12/22 10:53:37;;;;;;;13.57;2.47;;;7.30;99.90;;;;;;4940329;29;20048;-81
2023/12/22 10:56:04;;;;;;;11.65;1.85;;;7.50;99.90;;;;;;4937162;29;20039;-81
2023/12/22 10:58:31;;;;;;;13.18;2.10;;;6.80;99.90;;;;;;4954730;29;20043;-81
2023/12/22 11:00:59;;;;;;;12.15;2.13;;;6.80;99.90;;;;;;4929148;29;20130;-81
2023/12/22 11:03:28;;;;;;;17.27;2.55;;;6.80;99.90;;;;;;4936013;29;20055;-81
2023/12/22 11:05:57;;;;;;;13.52;2.80;;;6.80;99.90;;;;;;4936517;29;20505;-81
2023/12/22 11:08:27;;;;;;;15.10;2.15;;;7.10;99.90;;;;;;4933228;29;20119;-82
2023/12/22 11:10:58;;;;;;;15.10;2.20;;;7.80;99.90;;;;;;4958017;29;20052;-82
2023/12/22 11:13:25;;;;;;;12.68;2.17;;;7.00;99.90;;;;;;4943952;29;20048;-82
2023/12/22 11:15:53;;;;;;;11.38;2.13;;;7.20;99.90;;;;;;4946478;29;20148;-82
2023/12/22 11:18:21;;;;;;;12.00;2.22;;;7.00;99.90;;;;;;4935602;29;20083;-82
2023/12/22 11:20:49;;;;;;;14.20;2.17;;;7.60;99.90;;;;;;4946873;29;20096;-82
2023/12/22 11:23:17;;;;;;;13.65;2.20;;;7.00;99.90;;;;;;4940828;29;20048;-81
2023/12/22 11:25:49;;;;;;;12.13;2.20;;;7.50;99.90;;;;;;4943544;29;20445;-82
2023/12/22 11:28:18;;;;;;;17.23;2.60;;;7.00;99.90;;;;;;4948895;29;20044;-82
2023/12/22 11:30:45;;;;;;;13.05;3.05;;;7.00;99.90;;;;;;4941076;29;20059;-82
2023/12/22 11:33:13;;;;;;;10.68;3.10;;;7.00;99.90;;;;;;4948383;29;20103;-82
2023/12/22 11:35:40;;;;;;;14.15;3.25;;;7.20;99.90;;;;;;4967088;29;20182;-82
2023/12/22 11:38:10;;;;;;;16.60;4.20;;;7.60;99.90;;;;;;4948583;29;20409;-82
2023/12/22 11:40:36;;;;;;;16.58;4.88;;;7.00;99.90;;;;;;4948919;29;20091;-82
2023/12/22 11:43:03;;;;;;;17.50;4.50;;;7.70;99.90;;;;;;4943268;29;20043;-81
2023/12/22 11:45:31;;;;;;;21.40;6.22;;;7.00;99.90;;;;;;4953081;29;20043;-81
2023/12/22 11:48:09;;;;;;;24.98;5.93;;;7.00;99.90;;;;;;4942755;29;20413;-82
2023/12/22 11:50:37;;;;;;;17.13;4.28;;;7.00;99.90;;;;;;4960189;29;20048;-82
2023/12/22 11:53:23;;;;;;;15.68;2.97;;;7.60;99.90;;;;;;4958604;29;20115;-82
2023/12/22 11:56:09;;;;;;;16.60;2.50;;;7.10;99.90;;;;;;4954439;29;20043;-82
2023/12/22 11:58:42;;;;;;;15.00;1.95;;;8.00;99.90;;;;;;4971900;29;20183;-81
2023/12/22 12:01:12;;;;;;;15.68;2.25;;;7.10;99.90;;;;;;4955555;29;20485;-82
2023/12/22 12:03:49;;;;;;;10.27;2.08;;;7.10;99.90;;;;;;4953198;29;20047;-82
2023/12/22 12:06:21;;;;;;;15.25;2.75;;;7.10;99.90;;;;;;4966462;29;20076;-82
2023/12/22 12:08:51;;;;;;;13.68;2.10;;;7.20;99.90;;;;;;4945168;29;20098;-82
2023/12/22 12:11:20;;;;;;;14.88;2.40;;;7.20;99.90;;;;;;4965098;29;20039;-82
2023/12/22 12:13:48;;;;;;;13.35;2.42;;;7.20;99.90;;;;;;4939202;29;20050;-82
2023/12/22 12:16:19;;;;;;;12.23;2.30;;;7.10;99.90;;;;;;4926408;29;20123;-82
2023/12/22 12:18:46;;;;;;;14.52;1.95;;;7.10;99.90;;;;;;4939935;29;20079;-82
2023/12/22 12:21:13;;;;;;;16.13;2.33;;;7.10;99.90;;;;;;4938167;29;20075;-82
2023/12/22 12:23:41;;;;;;;14.80;2.00;;;7.50;99.90;;;;;;4951773;29;20054;-81
2023/12/22 12:26:08;;;;;;;13.90;2.50;;;7.10;99.90;;;;;;4939379;29;20035;-81
2023/12/22 12:28:37;;;;;;;12.05;2.35;;;7.30;99.90;;;;;;4933643;29;20067;-82
2023/12/22 12:31:06;;;;;;;14.52;3.47;;;7.70;99.90;;;;;;4927138;29;20044;-81
2023/12/22 12:33:33;;;;;;;15.63;2.80;;;7.10;99.90;;;;;;4926137;29;20040;-81
2023/12/22 12:36:00;;;;;;;9.48;2.05;;;7.10;99.90;;;;;;4934370;29;20520;-81
2023/12/22 12:38:53;;;;;;;18.15;2.67;;;7.70;99.90;;;;;;4938982;29;20039;-82
2023/12/22 12:41:34;;;;;;;13.52;2.60;;;7.30;99.90;;;;;;4924445;29;20079;-81
2023/12/22 12:44:04;;;;;;;10.43;2.25;;;7.20;99.90;;;;;;4934233;29;20496;-82
2023/12/22 12:46:34;;;;;;;12.20;2.25;;;7.20;99.90;;;;;;4955587;29;20051;-82
2023/12/22 12:49:09;;;;;;;12.57;2.42;;;7.50;99.90;;;;;;4936292;29;20515;-81